createdAt,value
2023-05-24T00:01:56.641Z,3.10
2023-05-24T00:04:25.044Z,2.85
2023-05-24T00:06:54.802Z,2.85
2023-05-24T00:09:22.100Z,3.10
2023-05-24T00:11:51.018Z,3.05
2023-05-24T00:14:17.671Z,3.05
2023-05-24T00:16:46.288Z,2.75
2023-05-24T00:19:18.255Z,3.33
2023-05-24T00:21:45.789Z,3.30
2023-05-24T00:24:12.819Z,3.00
2023-05-24T00:26:40.021Z,3.10
2023-05-24T00:29:06.811Z,2.85
2023-05-24T00:31:33.679Z,3.10
2023-05-24T00:34:00.467Z,3.08
2023-05-24T00:36:27.225Z,3.30
2023-05-24T00:38:53.950Z,3.65
2023-05-24T00:41:20.622Z,2.78
2023-05-24T00:43:47.304Z,3.38
2023-05-24T00:46:27.291Z,3.28
2023-05-24T00:48:54.574Z,2.83
2023-05-24T00:51:21.733Z,3.63
2023-05-24T00:53:49.374Z,2.67
2023-05-24T00:56:17.422Z,3.28
2023-05-24T00:58:45.472Z,2.75
2023-05-24T01:01:13.026Z,3.25
2023-05-24T01:03:40.300Z,2.85
2023-05-24T01:06:08.153Z,3.50
2023-05-24T01:08:58.987Z,3.22
2023-05-24T01:12:00.446Z,2.80
2023-05-24T01:14:52.869Z,2.92
2023-05-24T01:17:26.274Z,3.10
2023-05-24T01:20:10.078Z,3.25
2023-05-24T01:23:07.988Z,2.72
2023-05-24T01:26:04.089Z,2.65
2023-05-24T01:28:34.033Z,3.00
2023-05-24T01:31:01.579Z,3.20
2023-05-24T01:33:28.561Z,2.80
2023-05-24T01:35:55.296Z,2.90
2023-05-24T01:38:22.153Z,2.55
2023-05-24T01:40:53.453Z,3.17
2023-05-24T01:43:39.862Z,3.13
2023-05-24T01:46:35.833Z,2.78
2023-05-24T01:49:27.180Z,2.47
2023-05-24T01:52:04.115Z,2.75
2023-05-24T01:54:37.996Z,2.70
2023-05-24T01:57:07.757Z,2.30
2023-05-24T01:59:35.754Z,3.28
2023-05-24T02:02:03.015Z,2.53
2023-05-24T02:04:31.210Z,2.60
2023-05-24T02:06:57.822Z,3.20
2023-05-24T02:09:24.443Z,3.13
2023-05-24T02:11:51.104Z,2.33
2023-05-24T02:14:19.736Z,3.35
2023-05-24T02:16:47.361Z,3.42
2023-05-24T02:19:14.542Z,2.85
2023-05-24T02:21:43.636Z,3.08
2023-05-24T02:24:12.343Z,3.42
2023-05-24T02:26:39.215Z,2.65
2023-05-24T02:29:06.014Z,2.28
2023-05-24T02:31:32.758Z,3.30
2023-05-24T02:33:59.432Z,2.60
2023-05-24T02:36:26.027Z,2.58
2023-05-24T02:38:52.854Z,2.72
2023-05-24T02:41:19.706Z,2.60
2023-05-24T02:43:47.401Z,3.10
2023-05-24T02:46:15.207Z,2.72
2023-05-24T02:48:41.931Z,2.80
2023-05-24T02:51:08.566Z,3.13
2023-05-24T02:53:35.172Z,2.95
2023-05-24T02:56:01.784Z,3.47
2023-05-24T02:58:28.996Z,3.22
2023-05-24T03:00:55.865Z,2.40
2023-05-24T03:03:22.790Z,2.35
2023-05-24T03:05:49.653Z,2.38
2023-05-24T03:08:16.622Z,2.40
2023-05-24T03:10:43.579Z,2.80
2023-05-24T03:13:10.663Z,2.78
2023-05-24T03:15:37.290Z,2.92
2023-05-24T03:18:04.084Z,2.45
2023-05-24T03:20:31.017Z,2.42
2023-05-24T03:22:57.844Z,2.42
2023-05-24T03:25:24.489Z,2.55
2023-05-24T03:27:51.117Z,2.53
2023-05-24T03:30:17.767Z,2.50
2023-05-24T03:32:44.434Z,2.95
2023-05-24T03:35:12.061Z,2.58
2023-05-24T03:37:38.865Z,2.28
2023-05-24T03:40:06.724Z,2.63
2023-05-24T03:42:33.429Z,3.60
2023-05-24T03:45:00.034Z,2.40
2023-05-24T03:47:26.697Z,2.63
2023-05-24T03:49:53.333Z,3.08
2023-05-24T03:52:19.980Z,2.92
2023-05-24T03:54:46.606Z,4.88
2023-05-24T03:57:13.234Z,6.88
2023-05-24T03:59:41.265Z,6.25
2023-05-24T04:02:08.443Z,5.13
2023-05-24T04:04:36.886Z,4.45
2023-05-24T04:07:03.665Z,3.38
2023-05-24T04:09:30.352Z,2.90
2023-05-24T04:11:57.064Z,3.53
2023-05-24T04:14:23.793Z,2.85
2023-05-24T04:16:51.733Z,2.65
2023-05-24T04:19:18.468Z,2.85
2023-05-24T04:21:50.292Z,2.72
2023-05-24T04:24:16.957Z,2.60
2023-05-24T04:26:44.668Z,2.25
2023-05-24T04:29:11.385Z,2.45
2023-05-24T04:31:38.142Z,2.50
2023-05-24T04:34:07.271Z,2.50
2023-05-24T04:36:35.473Z,2.33
2023-05-24T04:39:04.862Z,2.50
2023-05-24T04:41:32.231Z,2.10
2023-05-24T04:44:01.548Z,3.00
2023-05-24T04:46:28.457Z,2.38
2023-05-24T04:48:55.360Z,2.38
2023-05-24T04:51:23.373Z,2.50
2023-05-24T04:53:52.179Z,2.30
2023-05-24T04:56:22.813Z,1.95
2023-05-24T04:58:49.436Z,2.97
2023-05-24T05:01:16.150Z,2.78
2023-05-24T05:03:44.983Z,3.42
2023-05-24T05:06:12.024Z,2.63
2023-05-24T05:08:38.718Z,2.97
2023-05-24T05:11:05.422Z,3.60
2023-05-24T05:13:32.074Z,3.10
2023-05-24T05:15:58.734Z,2.75
2023-05-24T05:18:25.351Z,2.97
2023-05-24T05:20:52.321Z,3.10
2023-05-24T05:23:19.107Z,3.33
2023-05-24T05:25:45.956Z,3.20
2023-05-24T05:28:12.645Z,3.40
2023-05-24T05:30:39.657Z,3.20
2023-05-24T05:33:06.458Z,2.70
2023-05-24T05:35:33.297Z,2.97
2023-05-24T05:37:59.911Z,3.05
2023-05-24T05:40:26.538Z,3.65
2023-05-24T05:42:53.238Z,3.38
2023-05-24T05:45:20.038Z,2.65
2023-05-24T05:47:46.824Z,2.97
2023-05-24T05:50:13.563Z,3.05
2023-05-24T05:52:40.922Z,2.60
2023-05-24T05:55:08.920Z,2.30
2023-05-24T05:57:35.745Z,3.13
2023-05-24T06:00:02.530Z,2.67
2023-05-24T06:02:29.455Z,2.78
2023-05-24T06:04:56.505Z,2.28
2023-05-24T06:07:23.138Z,2.75
2023-05-24T06:09:50.825Z,2.83
2023-05-24T06:12:17.518Z,2.67
2023-05-24T06:14:44.193Z,2.85
2023-05-24T06:17:11.277Z,3.40
2023-05-24T06:19:40.381Z,2.92
2023-05-24T06:22:07.168Z,3.10
2023-05-24T06:24:34.740Z,3.08
2023-05-24T06:27:03.346Z,2.78
2023-05-24T06:29:31.945Z,2.92
2023-05-24T06:31:58.801Z,2.40
2023-05-24T06:34:25.594Z,2.97
2023-05-24T06:36:52.821Z,2.70
2023-05-24T06:39:19.621Z,2.63
2023-05-24T06:41:46.971Z,2.83
2023-05-24T06:44:14.296Z,2.70
2023-05-24T06:46:41.105Z,2.65
2023-05-24T06:49:08.425Z,2.60
2023-05-24T06:51:35.133Z,2.65
2023-05-24T06:54:02.064Z,2.33
2023-05-24T06:56:28.815Z,2.50
2023-05-24T06:58:56.576Z,2.80
2023-05-24T07:01:23.342Z,2.58
2023-05-24T07:03:50.072Z,2.83
2023-05-24T07:06:17.075Z,2.42
2023-05-24T07:08:44.032Z,2.72
2023-05-24T07:11:10.873Z,2.83
2023-05-24T07:13:37.508Z,2.90
2023-05-24T07:16:05.807Z,2.38
2023-05-24T07:18:32.405Z,2.45
2023-05-24T07:21:00.872Z,3.05
2023-05-24T07:23:27.541Z,2.95
2023-05-24T07:25:54.147Z,2.90
2023-05-24T07:28:20.874Z,3.10
2023-05-24T07:30:47.775Z,2.80
2023-05-24T07:33:14.897Z,3.20
2023-05-24T07:35:41.932Z,2.78
2023-05-24T07:38:08.786Z,2.78
2023-05-24T07:40:35.471Z,2.70
2023-05-24T07:43:03.925Z,3.17
2023-05-24T07:45:31.649Z,2.55
2023-05-24T07:47:58.402Z,3.00
2023-05-24T07:50:25.311Z,2.90
2023-05-24T07:52:52.163Z,2.88
2023-05-24T07:55:18.854Z,3.15
2023-05-24T07:57:45.512Z,2.80
2023-05-24T08:00:14.551Z,2.47
2023-05-24T08:02:43.944Z,3.15
2023-05-24T08:05:14.856Z,3.28
2023-05-24T08:07:41.842Z,2.85
2023-05-24T08:10:12.497Z,3.55
2023-05-24T08:12:39.718Z,2.78
2023-05-24T08:15:07.537Z,3.00
2023-05-24T08:17:38.783Z,2.88
2023-05-24T08:20:09.654Z,2.90
2023-05-24T08:22:37.497Z,2.63
2023-05-24T08:25:04.811Z,3.13
2023-05-24T08:27:31.738Z,2.97
2023-05-24T08:29:58.794Z,3.28
2023-05-24T08:32:25.714Z,3.33
2023-05-24T08:34:58.162Z,2.75
2023-05-24T08:37:33.842Z,2.78
2023-05-24T08:40:00.492Z,2.92
2023-05-24T08:42:28.669Z,3.92
2023-05-24T08:45:15.137Z,3.22
2023-05-24T08:47:42.396Z,3.72
2023-05-24T08:50:11.233Z,3.20
2023-05-24T08:52:39.662Z,3.47
2023-05-24T08:55:07.320Z,3.10
2023-05-24T08:57:34.896Z,3.20
2023-05-24T09:00:02.063Z,3.45
2023-05-24T09:02:30.108Z,3.83
2023-05-24T09:04:58.073Z,3.20
2023-05-24T09:07:25.676Z,3.50
2023-05-24T09:10:06.727Z,3.15
2023-05-24T09:12:38.215Z,2.53
2023-05-24T09:15:08.386Z,3.30
2023-05-24T09:17:37.032Z,3.33
2023-05-24T09:20:07.351Z,3.30
2023-05-24T09:22:36.823Z,2.95
2023-05-24T09:25:07.949Z,3.42
2023-05-24T09:27:36.023Z,2.88
2023-05-24T09:30:05.365Z,3.00
2023-05-24T09:32:32.457Z,3.17
2023-05-24T09:34:59.989Z,2.92
2023-05-24T09:37:32.097Z,3.28
2023-05-24T09:39:59.678Z,3.10
2023-05-24T09:42:31.036Z,2.80
2023-05-24T09:45:01.601Z,2.97
2023-05-24T09:47:38.650Z,3.28
2023-05-24T09:50:15.330Z,2.90
2023-05-24T09:52:42.600Z,2.60
2023-05-24T09:55:17.841Z,2.42
2023-05-24T09:58:01.455Z,2.95
2023-05-24T10:00:28.268Z,2.65
2023-05-24T10:03:09.169Z,3.03
2023-05-24T10:05:36.977Z,3.10
2023-05-24T10:08:08.887Z,3.13
2023-05-24T10:10:36.537Z,2.70
2023-05-24T10:13:03.755Z,2.97
2023-05-24T10:15:30.798Z,2.92
2023-05-24T10:17:58.616Z,3.22
2023-05-24T10:20:25.528Z,2.70
2023-05-24T10:22:59.335Z,3.25
2023-05-24T10:25:28.828Z,3.60
2023-05-24T10:28:03.183Z,3.70
2023-05-24T10:31:02.582Z,2.65
2023-05-24T10:33:37.681Z,2.45
2023-05-24T10:36:09.422Z,3.20
2023-05-24T10:38:41.772Z,2.92
2023-05-24T10:41:09.278Z,2.85
2023-05-24T10:43:37.712Z,3.20
2023-05-24T10:46:05.673Z,2.55
2023-05-24T10:48:33.893Z,2.90
2023-05-24T10:51:49.852Z,3.15
2023-05-24T10:54:19.000Z,3.13
2023-05-24T10:56:49.055Z,3.28
2023-05-24T10:59:39.368Z,2.55
2023-05-24T11:02:16.493Z,2.83
2023-05-24T11:04:46.685Z,3.33
2023-05-24T11:07:17.053Z,3.28
2023-05-24T11:09:47.567Z,2.80
2023-05-24T11:12:20.535Z,3.63
2023-05-24T11:14:50.176Z,3.40
2023-05-24T11:17:19.147Z,2.83
2023-05-24T11:19:54.572Z,2.90
2023-05-24T11:22:26.793Z,3.15
2023-05-24T11:24:53.725Z,3.38
2023-05-24T11:27:20.851Z,2.58
2023-05-24T11:29:48.427Z,3.10
2023-05-24T11:32:17.981Z,3.17
2023-05-24T11:34:47.167Z,2.72
2023-05-24T11:37:17.165Z,2.80
2023-05-24T11:39:52.337Z,2.78
2023-05-24T11:42:21.165Z,3.45
2023-05-24T11:44:49.727Z,3.13
2023-05-24T11:47:16.476Z,3.00
2023-05-24T11:49:43.151Z,3.15
2023-05-24T11:52:09.796Z,3.30
2023-05-24T11:54:38.866Z,3.45
2023-05-24T11:57:05.974Z,3.13
2023-05-24T11:59:32.789Z,2.83
2023-05-24T12:02:03.520Z,2.90
2023-05-24T12:04:32.051Z,3.00
2023-05-24T12:06:59.291Z,3.05
2023-05-24T12:09:26.974Z,3.80
2023-05-24T12:11:54.619Z,3.47
2023-05-24T12:14:33.122Z,3.00
2023-05-24T12:17:01.209Z,3.00
2023-05-24T12:19:36.253Z,2.80
2023-05-24T12:22:07.951Z,2.80
2023-05-24T12:24:35.595Z,3.15
2023-05-24T12:27:07.164Z,3.25
2023-05-24T12:29:40.346Z,3.53
2023-05-24T12:32:12.586Z,2.92
2023-05-24T12:34:44.865Z,2.90
2023-05-24T12:37:13.665Z,2.97
2023-05-24T12:39:42.533Z,3.30
2023-05-24T12:42:11.945Z,3.10
2023-05-24T12:44:39.256Z,3.33
2023-05-24T12:47:08.077Z,3.88
2023-05-24T12:49:35.578Z,3.03
2023-05-24T12:52:02.304Z,2.92
2023-05-24T12:54:29.552Z,3.05
2023-05-24T12:56:57.753Z,3.30
2023-05-24T12:59:26.113Z,3.00
2023-05-24T13:01:53.265Z,3.58
2023-05-24T13:04:23.100Z,3.22
2023-05-24T13:06:49.894Z,3.13
2023-05-24T13:09:21.397Z,3.08
2023-05-24T13:11:48.110Z,3.30
2023-05-24T13:14:16.367Z,3.13
2023-05-24T13:16:43.914Z,3.65
2023-05-24T13:19:10.597Z,3.65
2023-05-24T13:21:38.023Z,3.15
2023-05-24T13:24:06.281Z,3.33
2023-05-24T13:26:37.074Z,3.15
2023-05-24T13:31:37.155Z,2.78
2023-05-24T13:34:04.355Z,3.33
2023-05-24T13:36:37.902Z,2.83
2023-05-24T13:41:35.477Z,2.80
2023-05-24T13:44:02.706Z,2.10
2023-05-24T13:46:30.171Z,2.35
2023-05-24T13:48:56.951Z,2.42
2023-05-24T13:51:24.359Z,2.85
2023-05-24T13:53:51.181Z,2.83
2023-05-24T13:56:18.544Z,3.10
2023-05-24T13:58:45.253Z,2.50
2023-05-24T14:01:12.145Z,2.75
2023-05-24T14:03:40.866Z,2.35
2023-05-24T14:06:08.921Z,2.38
2023-05-24T14:08:36.178Z,2.60
2023-05-24T14:11:08.764Z,2.55
2023-05-24T14:16:06.589Z,2.47
2023-05-24T14:18:33.810Z,2.78
2023-05-24T14:21:01.318Z,2.35
2023-05-24T14:23:30.316Z,2.30
2023-05-24T14:25:57.506Z,2.50
2023-05-24T14:28:24.201Z,1.98
2023-05-24T14:30:50.838Z,2.42
2023-05-24T14:33:17.505Z,2.50
2023-05-24T14:35:44.320Z,2.40
2023-05-24T14:38:11.910Z,2.17
2023-05-24T14:40:40.023Z,2.83
2023-05-24T14:43:09.954Z,2.38
2023-05-24T14:45:38.395Z,2.50
2023-05-24T14:48:05.557Z,2.50
2023-05-24T14:50:41.826Z,2.75
2023-05-24T14:53:11.709Z,2.47
2023-05-24T14:55:40.894Z,2.80
2023-05-24T14:58:13.662Z,2.70
2023-05-24T15:00:42.060Z,2.55
2023-05-24T15:03:09.322Z,2.47
2023-05-24T15:05:37.220Z,2.75
2023-05-24T15:08:05.374Z,2.97
2023-05-24T15:10:32.047Z,2.75
2023-05-24T15:12:58.739Z,2.97
2023-05-24T15:15:25.338Z,2.45
2023-05-24T15:17:52.029Z,2.70
2023-05-24T15:20:19.626Z,2.47
2023-05-24T15:22:46.544Z,2.75
2023-05-24T15:25:13.488Z,2.95
2023-05-24T15:27:40.112Z,2.50
2023-05-24T15:30:07.611Z,2.38
2023-05-24T15:32:34.381Z,2.30
2023-05-24T15:35:01.241Z,2.88
2023-05-24T15:37:27.993Z,2.90
2023-05-24T15:39:54.771Z,2.42
2023-05-24T15:42:23.443Z,2.78
2023-05-24T15:44:50.757Z,2.40
2023-05-24T15:47:19.695Z,2.70
2023-05-24T15:49:48.052Z,2.50
2023-05-24T15:52:14.676Z,3.53
2023-05-24T15:54:41.351Z,2.97
2023-05-24T15:57:08.034Z,2.53
2023-05-24T15:59:36.705Z,2.60
2023-05-24T16:02:03.450Z,3.00
2023-05-24T16:04:30.221Z,2.70
2023-05-24T16:06:56.862Z,2.35
2023-05-24T16:09:23.517Z,3.05
2023-05-24T16:11:50.388Z,2.50
2023-05-24T16:14:17.289Z,2.42
2023-05-24T16:16:45.656Z,2.83
2023-05-24T16:19:12.683Z,2.75
2023-05-24T16:21:39.454Z,2.75
2023-05-24T16:24:06.761Z,2.58
2023-05-24T16:26:33.558Z,2.58
2023-05-24T16:29:01.565Z,2.80
2023-05-24T16:31:30.014Z,2.67
2023-05-24T16:33:58.738Z,2.67
2023-05-24T16:36:26.751Z,3.00
2023-05-24T16:38:53.517Z,3.03
2023-05-24T16:41:20.219Z,2.67
2023-05-24T16:43:47.158Z,2.63
2023-05-24T16:46:13.878Z,2.50
2023-05-24T16:48:40.713Z,2.53
2023-05-24T16:51:07.684Z,2.90
2023-05-24T16:53:34.400Z,2.72
2023-05-24T16:56:01.276Z,2.83
2023-05-24T16:58:28.807Z,2.88
2023-05-24T17:00:55.866Z,2.28
2023-05-24T17:03:27.925Z,2.65
2023-05-24T17:05:56.819Z,2.50
2023-05-24T17:08:25.625Z,2.55
2023-05-24T17:10:56.025Z,2.60
2023-05-24T17:13:23.704Z,2.80
2023-05-24T17:15:55.050Z,2.83
2023-05-24T17:18:29.996Z,2.40
2023-05-24T17:21:04.636Z,2.25
2023-05-24T17:23:34.589Z,2.40
2023-05-24T17:26:02.493Z,2.28
2023-05-24T17:28:29.940Z,3.17
2023-05-24T17:30:59.650Z,2.55
2023-05-24T17:33:33.739Z,2.35
2023-05-24T17:36:03.230Z,2.83
2023-05-24T17:38:33.001Z,3.00
2023-05-24T17:41:00.062Z,2.72
2023-05-24T17:43:32.793Z,2.58
2023-05-24T17:46:06.824Z,2.83
2023-05-24T17:48:35.860Z,2.55
2023-05-24T17:51:08.802Z,2.90
2023-05-24T17:53:37.278Z,2.67
2023-05-24T17:56:05.476Z,2.65
2023-05-24T17:58:35.539Z,2.38
2023-05-24T18:01:05.103Z,2.60
2023-05-24T18:03:33.485Z,2.78
2023-05-24T18:06:01.016Z,2.63
2023-05-24T18:08:27.875Z,2.28
2023-05-24T18:10:54.530Z,2.50
2023-05-24T18:13:21.545Z,2.10
2023-05-24T18:15:49.619Z,2.83
2023-05-24T18:18:17.020Z,2.35
2023-05-24T18:20:44.071Z,2.75
2023-05-24T18:23:10.898Z,2.55
2023-05-24T18:25:37.678Z,2.80
2023-05-24T18:28:04.465Z,2.70
2023-05-24T18:30:31.135Z,3.17
2023-05-24T18:33:06.360Z,3.03
2023-05-24T18:35:35.647Z,2.33
2023-05-24T18:38:04.022Z,2.85
2023-05-24T18:40:30.978Z,2.50
2023-05-24T18:43:00.088Z,3.13
2023-05-24T18:45:26.763Z,2.58
2023-05-24T18:47:54.183Z,2.67
2023-05-24T18:50:23.323Z,2.55
2023-05-24T18:52:50.404Z,2.75
2023-05-24T18:55:17.506Z,2.67
2023-05-24T18:57:44.154Z,2.80
2023-05-24T19:00:12.139Z,2.90
2023-05-24T19:02:39.787Z,2.88
2023-05-24T19:05:08.271Z,2.60
2023-05-24T19:07:35.975Z,3.00
2023-05-24T19:10:05.111Z,2.60
2023-05-24T19:12:31.818Z,3.03
2023-05-24T19:14:58.982Z,2.33
2023-05-24T19:17:25.782Z,2.55
2023-05-24T19:19:52.577Z,2.72
2023-05-24T19:22:19.551Z,2.40
2023-05-24T19:24:46.636Z,2.75
2023-05-24T19:27:13.533Z,2.60
2023-05-24T19:29:40.215Z,2.72
2023-05-24T19:32:07.992Z,2.33
2023-05-24T19:34:35.230Z,2.58
2023-05-24T19:37:01.944Z,2.33
2023-05-24T19:39:28.650Z,2.53
2023-05-24T19:41:55.384Z,3.35
2023-05-24T19:44:22.017Z,2.60
2023-05-24T19:46:48.612Z,2.83
2023-05-24T19:49:15.292Z,3.15
2023-05-24T19:51:41.896Z,2.38
2023-05-24T19:54:09.166Z,2.45
2023-05-24T19:56:37.488Z,2.53
2023-05-24T19:59:04.151Z,2.95
2023-05-24T20:01:30.895Z,2.50
2023-05-24T20:03:57.612Z,2.53
2023-05-24T20:06:24.342Z,2.15
2023-05-24T20:08:51.155Z,2.53
2023-05-24T20:11:17.914Z,3.05
2023-05-24T20:13:44.545Z,2.50
2023-05-24T20:16:11.316Z,2.88
2023-05-24T20:18:38.086Z,2.25
2023-05-24T20:21:04.710Z,2.25
2023-05-24T20:23:34.650Z,2.40
2023-05-24T20:26:01.546Z,2.47
2023-05-24T20:28:36.267Z,2.80
2023-05-24T20:31:03.213Z,2.85
2023-05-24T20:33:29.901Z,2.42
2023-05-24T20:35:58.183Z,2.63
2023-05-24T20:38:24.881Z,2.80
2023-05-24T20:40:51.505Z,2.75
2023-05-24T20:43:18.217Z,3.28
2023-05-24T20:45:48.178Z,2.15
2023-05-24T20:48:14.910Z,2.53
2023-05-24T20:50:41.903Z,2.35
2023-05-24T20:53:08.509Z,2.60
2023-05-24T20:55:35.437Z,2.90
2023-05-24T20:58:02.065Z,2.22
2023-05-24T21:00:28.660Z,2.70
2023-05-24T21:02:55.314Z,2.75
2023-05-24T21:05:21.988Z,2.45
2023-05-24T21:07:48.663Z,2.42
2023-05-24T21:10:21.385Z,2.00
2023-05-24T21:12:48.609Z,2.42
2023-05-24T21:15:15.300Z,2.10
2023-05-24T21:17:42.036Z,2.67
2023-05-24T21:20:09.372Z,2.53
2023-05-24T21:22:36.320Z,2.30
2023-05-24T21:25:04.439Z,2.13
2023-05-24T21:27:31.056Z,2.45
2023-05-24T21:29:57.684Z,2.80
2023-05-24T21:32:24.278Z,2.00
2023-05-24T21:34:50.984Z,2.17
2023-05-24T21:37:17.613Z,2.30
2023-05-24T21:39:44.502Z,2.80
2023-05-24T21:42:11.205Z,2.22
2023-05-24T21:44:37.831Z,1.92
2023-05-24T21:47:05.208Z,2.40
2023-05-24T21:49:31.888Z,2.17
2023-05-24T21:51:58.624Z,2.35
2023-05-24T21:54:25.277Z,2.75
2023-05-24T21:56:51.960Z,2.25
2023-05-24T21:59:18.630Z,2.50
2023-05-24T22:01:45.402Z,2.40
2023-05-24T22:04:12.162Z,2.38
2023-05-24T22:06:41.314Z,2.03
2023-05-24T22:09:11.474Z,2.45
2023-05-24T22:11:38.161Z,2.95
2023-05-24T22:14:04.825Z,2.28
2023-05-24T22:16:31.579Z,2.47
2023-05-24T22:18:58.292Z,2.58
2023-05-24T22:21:26.034Z,3.03
2023-05-24T22:23:52.644Z,2.53
2023-05-24T22:26:19.288Z,2.42
2023-05-24T22:28:54.592Z,2.47
2023-05-24T22:31:22.433Z,3.20
2023-05-24T22:33:49.540Z,2.70
2023-05-24T22:36:16.693Z,3.05
2023-05-24T22:38:43.942Z,2.60
2023-05-24T22:41:10.872Z,3.30
2023-05-24T22:43:37.656Z,3.05
2023-05-24T22:46:09.872Z,3.58
2023-05-24T22:48:37.587Z,3.70
2023-05-24T22:51:04.433Z,3.47
2023-05-24T22:53:32.256Z,3.65
2023-05-24T22:55:58.957Z,3.90
2023-05-24T22:58:25.773Z,3.72
2023-05-24T23:00:52.657Z,3.50
2023-05-24T23:03:19.495Z,3.70
2023-05-24T23:05:46.138Z,3.75
2023-05-24T23:08:13.028Z,3.83
2023-05-24T23:10:45.410Z,3.53
2023-05-24T23:13:14.612Z,4.43
2023-05-24T23:15:41.380Z,4.95
2023-05-24T23:18:09.992Z,4.30
2023-05-24T23:20:39.979Z,4.13
2023-05-24T23:23:09.760Z,4.25
2023-05-24T23:25:37.637Z,4.20
2023-05-24T23:28:04.558Z,4.45
2023-05-24T23:30:32.299Z,3.80
2023-05-24T23:32:59.468Z,4.03
2023-05-24T23:35:26.143Z,4.22
2023-05-24T23:37:53.625Z,3.97
2023-05-24T23:40:20.844Z,4.05
2023-05-24T23:42:48.290Z,4.60
2023-05-24T23:45:17.883Z,3.67
2023-05-24T23:47:45.541Z,4.18
2023-05-24T23:50:12.257Z,4.57
2023-05-24T23:52:39.292Z,4.68
2023-05-24T23:55:06.856Z,4.20
2023-05-24T23:57:33.522Z,4.05
